createdAt,value
2022-09-28T00:01:14.721Z,59.07
2022-09-28T00:03:42.715Z,58.92
2022-09-28T00:06:16.773Z,58.93
2022-09-28T00:08:50.215Z,58.90
2022-09-28T00:11:20.816Z,59.13
2022-09-28T00:13:51.433Z,58.92
2022-09-28T00:16:22.517Z,58.75
2022-09-28T00:18:51.451Z,58.52
2022-09-28T00:21:23.351Z,58.32
2022-09-28T00:24:10.830Z,58.07
2022-09-28T00:26:40.689Z,58.37
2022-09-28T00:29:15.349Z,58.28
2022-09-28T00:31:43.562Z,58.14
2022-09-28T00:34:11.728Z,58.14
2022-09-28T00:36:49.157Z,58.11
2022-09-28T00:39:18.323Z,58.42
2022-09-28T00:41:47.304Z,58.38
2022-09-28T00:44:42.082Z,58.70
2022-09-28T00:47:18.602Z,59.27
2022-09-28T00:49:50.607Z,59.77
2022-09-28T00:52:24.826Z,60.64
2022-09-28T00:54:54.356Z,60.60
2022-09-28T00:57:24.155Z,61.25
2022-09-28T00:59:56.044Z,61.50
2022-09-28T01:02:24.148Z,61.72
2022-09-28T01:04:52.988Z,62.17
2022-09-28T01:07:31.494Z,62.64
2022-09-28T01:10:00.240Z,62.66
2022-09-28T01:12:28.625Z,63.38
2022-09-28T01:14:59.719Z,63.82
2022-09-28T01:17:36.546Z,63.69
2022-09-28T01:20:25.037Z,63.32
2022-09-28T01:23:31.605Z,63.41
2022-09-28T01:26:34.278Z,63.13
2022-09-28T01:29:06.143Z,63.38
2022-09-28T01:31:39.408Z,63.05
2022-09-28T01:34:13.110Z,62.93
2022-09-28T01:36:47.253Z,62.55
2022-09-28T01:39:22.145Z,62.19
2022-09-28T01:41:53.846Z,62.52
2022-09-28T01:44:24.244Z,62.45
2022-09-28T01:46:55.300Z,62.16
2022-09-28T01:49:30.949Z,62.75
2022-09-28T01:52:03.662Z,62.91
2022-09-28T01:54:38.529Z,63.94
2022-09-28T01:57:13.581Z,64.15
2022-09-28T01:59:49.487Z,64.01
2022-09-28T02:02:21.730Z,64.21
2022-09-28T02:04:56.141Z,64.56
2022-09-28T02:07:29.481Z,64.70
2022-09-28T02:10:02.195Z,65.37
2022-09-28T02:12:39.731Z,65.03
2022-09-28T02:15:25.349Z,65.34
2022-09-28T02:17:53.667Z,65.85
2022-09-28T02:20:23.108Z,66.01
2022-09-28T02:22:52.824Z,66.47
2022-09-28T02:25:29.004Z,65.91
2022-09-28T02:28:01.993Z,66.54
2022-09-28T02:30:31.465Z,66.35
2022-09-28T02:33:07.894Z,66.44
2022-09-28T02:35:36.784Z,66.61
2022-09-28T02:38:04.818Z,66.80
2022-09-28T02:40:35.273Z,66.85
2022-09-28T02:43:12.899Z,67.19
2022-09-28T02:46:02.128Z,67.48
2022-09-28T02:49:05.190Z,67.25
2022-09-28T02:51:53.933Z,67.06
2022-09-28T02:54:38.138Z,67.06
2022-09-28T02:57:21.255Z,68.04
2022-09-28T02:59:58.669Z,68.56
2022-09-28T03:02:31.461Z,68.60
2022-09-28T03:05:17.013Z,69.42
2022-09-28T03:07:53.835Z,69.80
2022-09-28T03:10:30.256Z,69.96
2022-09-28T03:12:59.049Z,70.85
2022-09-28T03:15:30.592Z,71.30
2022-09-28T03:17:59.552Z,70.99
2022-09-28T03:20:28.514Z,70.22
2022-09-28T03:23:20.147Z,70.30
2022-09-28T03:25:47.555Z,70.74
2022-09-28T03:28:15.823Z,70.49
2022-09-28T03:30:47.602Z,70.49
2022-09-28T03:33:23.269Z,70.35
2022-09-28T03:35:56.554Z,70.61
2022-09-28T03:38:25.478Z,70.37
2022-09-28T03:40:59.348Z,70.89
2022-09-28T03:43:31.573Z,70.58
2022-09-28T03:46:03.848Z,70.47
2022-09-28T03:48:38.525Z,70.39
2022-09-28T03:51:09.809Z,69.98
2022-09-28T03:53:42.161Z,69.22
2022-09-28T03:56:13.674Z,69.79
2022-09-28T03:58:43.285Z,70.46
2022-09-28T04:01:17.847Z,70.66
2022-09-28T04:03:47.897Z,71.76
2022-09-28T04:06:16.168Z,71.60
2022-09-28T04:08:48.524Z,73.04
2022-09-28T04:11:16.883Z,72.78
2022-09-28T04:13:50.291Z,72.60
2022-09-28T04:16:21.020Z,72.54
2022-09-28T04:19:04.361Z,72.45
2022-09-28T04:21:59.183Z,71.42
2022-09-28T04:24:27.003Z,72.28
2022-09-28T04:27:15.991Z,71.77
2022-09-28T04:29:44.215Z,71.41
2022-09-28T04:32:25.534Z,71.14
2022-09-28T04:34:57.220Z,71.26
2022-09-28T04:37:34.828Z,72.95
2022-09-28T04:40:03.854Z,73.86
2022-09-28T04:42:32.990Z,73.76
2022-09-28T04:45:02.215Z,74.71
2022-09-28T04:47:32.114Z,73.09
2022-09-28T04:50:25.373Z,73.47
2022-09-28T04:53:16.920Z,72.74
2022-09-28T04:55:45.351Z,71.47
2022-09-28T04:58:13.477Z,71.76
2022-09-28T05:00:41.655Z,71.43
2022-09-28T05:03:43.178Z,70.68
2022-09-28T05:06:34.198Z,71.09
2022-09-28T05:09:10.262Z,69.45
2022-09-28T05:11:38.273Z,70.01
2022-09-28T05:14:12.121Z,70.52
2022-09-28T05:16:41.715Z,70.17
2022-09-28T05:19:30.282Z,70.09
2022-09-28T05:22:04.731Z,69.60
2022-09-28T05:24:38.584Z,69.40
2022-09-28T05:27:06.803Z,69.38
2022-09-28T05:29:35.279Z,69.85
2022-09-28T05:32:41.947Z,69.86
2022-09-28T05:35:21.790Z,69.44
2022-09-28T05:37:50.387Z,69.97
2022-09-28T05:40:19.007Z,69.08
2022-09-28T05:42:46.996Z,69.33
2022-09-28T05:45:15.383Z,69.00
2022-09-28T05:47:46.984Z,68.12
2022-09-28T05:50:19.216Z,67.86
2022-09-28T05:52:50.283Z,67.84
2022-09-28T05:55:18.499Z,67.51
2022-09-28T05:57:46.541Z,66.99
2022-09-28T06:00:15.573Z,67.70
2022-09-28T06:03:00.022Z,68.26
2022-09-28T06:05:29.586Z,67.96
2022-09-28T06:07:59.964Z,68.59
2022-09-28T06:10:29.474Z,69.68
2022-09-28T06:13:00.770Z,70.53
2022-09-28T06:15:37.983Z,71.32
2022-09-28T06:18:18.968Z,72.07
2022-09-28T06:21:26.415Z,72.94
2022-09-28T06:32:09.388Z,74.57
2022-09-28T06:38:53.537Z,74.63
2022-09-28T06:41:33.851Z,73.93
2022-09-28T06:50:38.575Z,81.96
2022-09-28T06:54:02.897Z,81.38
2022-09-28T07:19:16.947Z,98.45
2022-09-28T07:29:58.820Z,100.00
2022-09-28T07:32:48.672Z,100.00
2022-09-28T07:35:55.235Z,100.00
2022-09-28T07:38:27.917Z,100.00
2022-09-28T07:41:12.076Z,100.00
2022-09-28T07:43:51.847Z,100.00
2022-09-28T07:46:21.358Z,100.00
2022-09-28T07:48:56.780Z,100.00
2022-09-28T07:51:35.779Z,100.00
2022-09-28T07:54:22.651Z,100.00
2022-09-28T07:57:14.809Z,100.00
2022-09-28T07:59:58.299Z,100.00
2022-09-28T08:02:42.517Z,100.00
2022-09-28T08:05:12.470Z,100.00
2022-09-28T08:07:44.123Z,100.00
2022-09-28T08:15:03.258Z,100.00
2022-09-28T08:43:25.976Z,100.00
2022-09-28T09:10:51.268Z,100.00
2022-09-28T09:13:43.205Z,100.00
2022-09-28T09:16:22.654Z,100.00
2022-09-28T09:19:17.367Z,100.00
2022-09-28T09:22:18.230Z,100.00
2022-09-28T09:24:51.460Z,100.00
2022-09-28T09:27:41.574Z,100.00
2022-09-28T09:30:12.888Z,100.00
2022-09-28T09:33:07.460Z,100.00
2022-09-28T09:36:18.018Z,100.00
2022-09-28T09:39:35.146Z,100.00
2022-09-28T09:42:40.687Z,100.00
2022-09-28T09:45:44.157Z,100.00
2022-09-28T09:48:29.900Z,100.00
2022-09-28T09:51:02.243Z,100.00
2022-09-28T09:53:38.814Z,100.00
2022-09-28T09:56:14.330Z,100.00
2022-09-28T09:59:08.993Z,100.00
2022-09-28T10:01:43.396Z,100.00
2022-09-28T10:04:38.800Z,100.00
2022-09-28T10:07:22.059Z,100.00
2022-09-28T10:09:52.952Z,100.00
2022-09-28T10:12:33.334Z,100.00
2022-09-28T10:15:07.681Z,100.00
2022-09-28T10:17:48.167Z,100.00
2022-09-28T10:20:38.190Z,100.00
2022-09-28T10:23:27.873Z,100.00
2022-09-28T10:26:01.542Z,100.00
2022-09-28T10:28:36.712Z,100.00
2022-09-28T10:31:37.376Z,100.00
2022-09-28T10:34:09.981Z,100.00
2022-09-28T10:36:48.106Z,100.00
2022-09-28T10:39:31.825Z,100.00
2022-09-28T10:42:03.711Z,100.00
2022-09-28T10:44:34.804Z,100.00
2022-09-28T10:47:19.192Z,100.00
2022-09-28T10:49:51.656Z,100.00
2022-09-28T10:52:39.803Z,100.00
2022-09-28T10:55:37.000Z,100.00
2022-09-28T10:58:26.312Z,100.00
2022-09-28T11:01:04.693Z,100.00
2022-09-28T11:03:52.043Z,100.00
2022-09-28T11:06:27.031Z,100.00
2022-09-28T11:08:58.139Z,100.00
2022-09-28T11:11:27.639Z,100.00
2022-09-28T11:14:03.915Z,100.00
2022-09-28T11:16:37.268Z,100.00
2022-09-28T11:19:28.991Z,100.00
2022-09-28T11:21:57.174Z,100.00
2022-09-28T11:24:34.084Z,100.00
2022-09-28T11:27:05.315Z,100.00
2022-09-28T11:29:41.738Z,100.00
2022-09-28T11:32:32.973Z,100.00
2022-09-28T11:35:39.571Z,100.00
2022-09-28T11:38:22.020Z,100.00
2022-09-28T11:41:37.037Z,100.00
2022-09-28T11:44:21.130Z,100.00
2022-09-28T11:47:11.334Z,100.00
2022-09-28T11:49:45.117Z,100.00
2022-09-28T11:52:23.060Z,100.00
2022-09-28T11:54:56.706Z,100.00
2022-09-28T11:57:29.592Z,100.00
2022-09-28T12:00:01.717Z,100.00
2022-09-28T12:02:38.107Z,100.00
2022-09-28T12:05:20.704Z,100.00
2022-09-28T12:07:55.752Z,100.00
2022-09-28T12:10:51.337Z,100.00
2022-09-28T12:13:29.138Z,100.00
2022-09-28T12:16:27.639Z,100.00
2022-09-28T12:18:54.524Z,100.00
2022-09-28T12:21:36.066Z,100.00
2022-09-28T12:24:13.606Z,100.00
2022-09-28T12:26:48.230Z,100.00
2022-09-28T12:29:25.804Z,100.00
2022-09-28T12:32:01.528Z,100.00
2022-09-28T12:34:29.723Z,100.00
2022-09-28T12:37:10.078Z,100.00
2022-09-28T12:39:58.107Z,100.00
2022-09-28T12:42:44.203Z,100.00
2022-09-28T12:45:27.783Z,100.00
2022-09-28T12:48:17.188Z,100.00
2022-09-28T12:50:56.818Z,100.00
2022-09-28T12:53:54.093Z,100.00
2022-09-28T12:56:36.578Z,100.00
2022-09-28T12:59:19.978Z,100.00
2022-09-28T13:02:02.365Z,100.00
2022-09-28T13:04:54.755Z,100.00
2022-09-28T13:07:31.507Z,100.00
2022-09-28T13:10:16.845Z,100.00
2022-09-28T13:13:14.278Z,100.00
2022-09-28T13:15:50.254Z,100.00
2022-09-28T13:18:27.515Z,100.00
2022-09-28T13:21:07.884Z,100.00
2022-09-28T13:23:40.591Z,100.00
2022-09-28T13:26:22.774Z,100.00
2022-09-28T13:29:03.555Z,100.00
2022-09-28T13:31:40.294Z,100.00
2022-09-28T13:34:22.533Z,100.00
2022-09-28T13:37:20.899Z,100.00
2022-09-28T13:39:52.218Z,100.00
2022-09-28T13:43:09.071Z,100.00
2022-09-28T13:45:53.677Z,100.00
2022-09-28T13:48:25.686Z,100.00
2022-09-28T13:51:58.832Z,100.00
2022-09-28T13:54:41.401Z,100.00
2022-09-28T13:57:24.037Z,100.00
2022-09-28T14:00:02.925Z,100.00
2022-09-28T14:02:47.816Z,100.00
2022-09-28T14:05:53.248Z,100.00
2022-09-28T14:08:34.952Z,100.00
2022-09-28T14:11:43.349Z,100.00
2022-09-28T14:14:52.237Z,100.00
2022-09-28T14:26:36.304Z,100.00
2022-09-28T14:29:20.431Z,100.00
2022-09-28T14:31:49.188Z,100.00
2022-09-28T14:34:35.599Z,100.00
2022-09-28T14:37:24.415Z,100.00
2022-09-28T14:40:09.987Z,100.00
2022-09-28T14:42:41.323Z,100.00
2022-09-28T14:58:25.667Z,100.00
2022-09-28T15:01:49.719Z,100.00
2022-09-28T15:08:40.234Z,100.00
2022-09-28T15:11:26.422Z,100.00
2022-09-28T15:14:15.896Z,100.00
2022-09-28T15:16:52.826Z,100.00
2022-09-28T15:20:15.931Z,100.00
2022-09-28T15:22:47.804Z,100.00
2022-09-28T15:25:58.819Z,100.00
2022-09-28T15:30:41.533Z,100.00
2022-09-28T15:33:43.413Z,100.00
2022-09-28T15:37:36.491Z,100.00
2022-09-28T15:40:35.719Z,100.00
2022-09-28T15:43:23.678Z,100.00
2022-09-28T15:46:05.438Z,100.00
2022-09-28T15:48:42.225Z,100.00
2022-09-28T15:51:12.041Z,100.00
2022-09-28T15:53:48.368Z,100.00
2022-09-28T15:56:16.439Z,100.00
2022-09-28T15:59:09.543Z,100.00
2022-09-28T16:01:39.944Z,100.00
2022-09-28T16:11:31.539Z,100.00
2022-09-28T16:14:31.083Z,100.00
2022-09-28T16:17:18.212Z,100.00
2022-09-28T16:19:49.651Z,100.00
2022-09-28T16:22:29.299Z,100.00
2022-09-28T16:25:07.910Z,100.00
2022-09-28T16:31:51.491Z,100.00
2022-09-28T16:34:21.451Z,100.00
2022-09-28T16:36:55.276Z,100.00
2022-09-28T16:40:04.393Z,100.00
2022-09-28T16:42:33.321Z,100.00
2022-09-28T17:04:58.529Z,100.00
2022-09-28T17:07:27.990Z,100.00
2022-09-28T17:09:56.138Z,100.00
2022-09-28T17:12:28.959Z,100.00
2022-09-28T17:14:57.753Z,100.00
2022-09-28T17:17:29.915Z,100.00
2022-09-28T17:19:58.307Z,100.00
2022-09-28T17:22:27.906Z,100.00
2022-09-28T17:24:55.870Z,100.00
2022-09-28T17:27:24.169Z,100.00
2022-09-28T17:29:52.339Z,100.00
2022-09-28T17:32:20.751Z,100.00
2022-09-28T17:35:00.930Z,100.00
2022-09-28T17:37:38.562Z,100.00
2022-09-28T17:40:16.857Z,100.00
2022-09-28T17:42:46.516Z,100.00
2022-09-28T17:45:18.969Z,100.00
2022-09-28T17:47:47.171Z,100.00
2022-09-28T17:50:22.966Z,100.00
2022-09-28T17:52:55.475Z,100.00
2022-09-28T17:55:25.088Z,100.00
2022-09-28T17:57:53.348Z,100.00
2022-09-28T18:00:22.822Z,100.00
2022-09-28T18:02:54.428Z,100.00
2022-09-28T18:05:23.517Z,100.00
2022-09-28T18:07:53.797Z,100.00
2022-09-28T18:10:24.232Z,100.00
2022-09-28T18:12:52.239Z,100.00
2022-09-28T18:15:20.766Z,100.00
2022-09-28T18:17:48.867Z,100.00
2022-09-28T18:20:17.257Z,100.00
2022-09-28T18:22:45.207Z,100.00
2022-09-28T18:25:14.925Z,100.00
2022-09-28T18:27:43.220Z,100.00
2022-09-28T18:30:11.603Z,100.00
2022-09-28T18:32:39.485Z,100.00
2022-09-28T18:35:10.249Z,100.00
2022-09-28T18:37:39.843Z,100.00
2022-09-28T18:40:09.429Z,100.00
2022-09-28T18:42:39.825Z,100.00
2022-09-28T18:45:11.129Z,100.00
2022-09-28T18:47:39.302Z,100.00
2022-09-28T18:50:08.391Z,100.00
2022-09-28T18:52:38.029Z,100.00
2022-09-28T18:55:07.618Z,100.00
2022-09-28T18:57:37.131Z,100.00
2022-09-28T19:00:08.897Z,100.00
2022-09-28T19:03:04.213Z,100.00
2022-09-28T19:05:45.328Z,100.00
2022-09-28T19:08:14.896Z,100.00
2022-09-28T19:10:45.382Z,100.00
2022-09-28T19:13:15.369Z,100.00
2022-09-28T19:15:47.728Z,100.00
2022-09-28T19:18:17.861Z,100.00
2022-09-28T19:20:47.931Z,100.00
2022-09-28T19:23:18.290Z,100.00
2022-09-28T19:25:48.317Z,100.00
2022-09-28T19:28:19.045Z,100.00
2022-09-28T19:30:58.062Z,100.00
2022-09-28T19:33:27.695Z,100.00
2022-09-28T19:35:58.635Z,100.00
2022-09-28T19:38:31.163Z,100.00
2022-09-28T19:41:01.162Z,100.00
2022-09-28T19:43:30.208Z,100.00
2022-09-28T19:46:04.717Z,100.00
2022-09-28T19:48:33.772Z,100.00
2022-09-28T19:51:03.335Z,100.00
2022-09-28T19:53:33.452Z,100.00
2022-09-28T19:56:03.081Z,100.00
2022-09-28T19:58:34.015Z,100.00
2022-09-28T20:01:06.115Z,100.00
2022-09-28T20:03:33.978Z,100.00
2022-09-28T20:06:03.167Z,100.00
2022-09-28T20:08:31.118Z,100.00
2022-09-28T20:11:00.061Z,99.65
2022-09-28T20:13:31.757Z,98.32
2022-09-28T20:16:06.538Z,100.00
2022-09-28T20:18:36.076Z,100.00
2022-09-28T20:21:05.376Z,99.48
2022-09-28T20:23:36.165Z,99.18
2022-09-28T20:26:04.729Z,94.83
2022-09-28T20:28:32.837Z,94.58
2022-09-28T20:31:05.293Z,93.46
2022-09-28T20:33:34.912Z,92.64
2022-09-28T20:36:07.397Z,90.63
2022-09-28T20:38:38.271Z,90.68
2022-09-28T20:41:07.449Z,89.61
2022-09-28T20:43:36.166Z,88.99
2022-09-28T20:46:07.305Z,89.68
2022-09-28T20:48:35.531Z,86.62
2022-09-28T20:51:08.823Z,84.56
2022-09-28T20:53:37.922Z,85.00
2022-09-28T20:56:08.517Z,81.63
2022-09-28T20:58:39.184Z,81.17
2022-09-28T21:01:14.189Z,78.89
2022-09-28T21:03:47.490Z,77.58
2022-09-28T21:06:17.404Z,77.02
2022-09-28T21:08:46.246Z,76.18
2022-09-28T21:11:15.451Z,75.81
2022-09-28T21:13:43.851Z,76.24
2022-09-28T21:16:14.478Z,75.69
2022-09-28T21:18:42.594Z,75.94
2022-09-28T21:21:13.823Z,75.11
2022-09-28T21:23:42.676Z,74.37
2022-09-28T21:26:12.732Z,74.41
2022-09-28T21:28:41.357Z,74.96
2022-09-28T21:31:11.366Z,74.19
2022-09-28T21:33:40.688Z,73.59
2022-09-28T21:36:09.932Z,72.74
2022-09-28T21:38:37.984Z,72.50
2022-09-28T21:41:06.213Z,73.33
2022-09-28T21:43:34.274Z,72.49
2022-09-28T21:46:02.611Z,72.33
2022-09-28T21:48:31.142Z,72.29
2022-09-28T21:51:02.328Z,72.89
2022-09-28T21:53:32.332Z,73.63
2022-09-28T21:56:01.233Z,73.96
2022-09-28T21:58:30.882Z,74.91
2022-09-28T22:01:03.263Z,75.61
2022-09-28T22:03:32.351Z,75.69
2022-09-28T22:06:01.798Z,76.99
2022-09-28T22:08:29.892Z,79.20
2022-09-28T22:11:01.882Z,78.90
2022-09-28T22:13:30.360Z,79.50
2022-09-28T22:15:58.852Z,79.76
2022-09-28T22:18:27.305Z,82.16
2022-09-28T22:21:04.045Z,81.38
2022-09-28T22:23:32.082Z,80.71
2022-09-28T22:26:01.571Z,81.59
2022-09-28T22:28:29.835Z,83.08
2022-09-28T22:30:58.642Z,83.83
2022-09-28T22:33:26.935Z,86.68
2022-09-28T22:35:55.518Z,87.96
2022-09-28T22:38:25.737Z,88.87
2022-09-28T22:40:57.000Z,90.59
2022-09-28T22:43:26.315Z,94.75
2022-09-28T22:46:02.493Z,96.88
2022-09-28T22:48:30.684Z,96.82
2022-09-28T22:51:01.981Z,100.00
2022-09-28T22:53:31.490Z,100.00
2022-09-28T22:56:01.444Z,100.00
2022-09-28T22:58:29.366Z,100.00
2022-09-28T23:00:59.155Z,100.00
2022-09-28T23:03:27.006Z,100.00
2022-09-28T23:05:55.865Z,100.00
2022-09-28T23:08:24.925Z,100.00
2022-09-28T23:10:54.202Z,100.00
2022-09-28T23:13:22.065Z,100.00
2022-09-28T23:15:57.157Z,100.00
2022-09-28T23:18:26.078Z,100.00
2022-09-28T23:20:54.946Z,100.00
2022-09-28T23:23:23.446Z,100.00
2022-09-28T23:25:51.841Z,100.00
2022-09-28T23:28:22.264Z,100.00
2022-09-28T23:30:51.234Z,100.00
2022-09-28T23:33:20.672Z,100.00
2022-09-28T23:35:49.804Z,100.00
2022-09-28T23:38:19.419Z,100.00
2022-09-28T23:40:48.876Z,100.00
2022-09-28T23:43:22.385Z,100.00
2022-09-28T23:45:50.557Z,100.00
2022-09-28T23:48:19.484Z,100.00
2022-09-28T23:50:49.078Z,100.00
2022-09-28T23:53:17.238Z,100.00
2022-09-28T23:55:54.504Z,100.00
2022-09-28T23:58:24.125Z,100.00
